Time;durP1;ratioP1;P1;durP2;ratioP2;P2;SDS_P1;SDS_P2;PMS_P1;PMS_P2;Temp;Humidity;BMP_temperature;BMP_pressure;BME280_temperature;BME280_humidity;BME280_pressure;Samples;Min_cycle;Max_cycle;Signal;HPM_P1;HPM_P2
2022/04/03 00:01:59;;;;;;;12.88;4.88;;;;;;;;;;5054889;28;20037;-72
2022/04/03 00:04:25;;;;;;;13.43;4.40;;;;;;;;;;5059878;28;20047;-72
2022/04/03 00:06:51;;;;;;;9.60;4.20;;;;;;;;;;5068592;28;20511;-71
2022/04/03 00:09:17;;;;;;;11.32;4.95;;;;;;;;;;5068870;28;20087;-72
2022/04/03 00:11:43;;;;;;;10.30;5.75;;;;;;;;;;5084324;28;20044;-72
2022/04/03 00:14:10;;;;;;;9.90;4.63;;;;;;;;;;5066710;28;20052;-71
2022/04/03 00:16:36;;;;;;;12.65;4.95;;;;;;;;;;5077806;28;20040;-72
2022/04/03 00:19:02;;;;;;;16.85;5.72;;;;;;;;;;5068840;28;20036;-71
2022/04/03 00:21:28;;;;;;;12.05;6.13;;;;;;;;;;5055342;28;20040;-72
2022/04/03 00:23:55;;;;;;;13.27;5.93;;;;;;;;;;5054712;28;20041;-72
2022/04/03 00:26:21;;;;;;;12.38;5.60;;;;;;;;;;5067819;28;20072;-71
2022/04/03 00:28:47;;;;;;;10.40;5.45;;;;;;;;;;5059972;28;20520;-71
2022/04/03 00:31:13;;;;;;;11.50;5.93;;;;;;;;;;5067368;28;20040;-71
2022/04/03 00:33:40;;;;;;;14.65;5.40;;;;;;;;;;5062186;28;20182;-71
2022/04/03 00:36:06;;;;;;;9.48;5.30;;;;;;;;;;5067541;28;20037;-71
2022/04/03 00:38:32;;;;;;;13.00;4.82;;;;;;;;;;5053015;28;20033;-71
2022/04/03 00:41:00;;;;;;;12.93;5.35;;;;;;;;;;5064703;28;20325;-71
2022/04/03 00:43:26;;;;;;;12.15;4.90;;;;;;;;;;5069686;28;20055;-71
2022/04/03 00:45:53;;;;;;;13.48;5.40;;;;;;;;;;5065822;28;20049;-72
2022/04/03 00:48:19;;;;;;;8.30;5.22;;;;;;;;;;5052980;28;20048;-71
2022/04/03 00:50:45;;;;;;;13.65;5.22;;;;;;;;;;5058130;28;20111;-72
2022/04/03 00:53:12;;;;;;;18.13;6.25;;;2.90;99.90;;;;;;5068013;28;20047;-71
2022/04/03 00:55:42;;;;;;;12.70;5.38;;;2.80;99.90;;;;;;5062087;28;21492;-72
2022/04/03 00:58:09;;;;;;;12.68;5.78;;;;;;;;;;5071843;28;20136;-71
2022/04/03 01:00:35;;;;;;;8.70;4.55;;;;;;;;;;5064357;28;20410;-72
2022/04/03 01:03:02;;;;;;;8.00;4.20;;;;;;;;;;5072046;28;20111;-72
2022/04/03 01:05:28;;;;;;;10.05;4.25;;;;;;;;;;5065381;28;20102;-71
2022/04/03 01:07:55;;;;;;;16.42;3.97;;;;;;;;;;5055196;28;20043;-72
2022/04/03 01:10:21;;;;;;;10.02;3.20;;;;;;;;;;5057119;28;20493;-72
2022/04/03 01:12:47;;;;;;;12.63;3.70;;;;;;;;;;5054887;28;20473;-72
2022/04/03 01:15:17;;;;;;;7.95;2.97;;;3.00;99.90;;;;;;5067454;28;20119;-71
2022/04/03 01:17:44;;;;;;;7.13;2.85;;;;;;;;;;5057475;28;20039;-71
2022/04/03 01:20:10;;;;;;;7.57;3.10;;;;;;;;;;5067174;28;20115;-72
2022/04/03 01:22:37;;;;;;;5.78;3.00;;;;;;;;;;5053621;28;20065;-72
2022/04/03 01:25:03;;;;;;;8.73;3.75;;;;;;;;;;5069477;28;20040;-72
2022/04/03 01:27:29;;;;;;;6.93;3.70;;;;;;;;;;5065320;28;20048;-72
2022/04/03 01:29:57;;;;;;;6.68;3.35;;;;;;;;;;5064017;28;20123;-72
2022/04/03 01:32:23;;;;;;;6.57;3.95;;;;;;;;;;5055800;28;20499;-72
2022/04/03 01:34:50;;;;;;;6.63;3.33;;;;;;;;;;5067715;28;20131;-72
2022/04/03 01:37:16;;;;;;;8.77;4.00;;;;;;;;;;5054582;28;20037;-71
2022/04/03 01:39:42;;;;;;;10.55;3.55;;;;;;;;;;5053350;28;20036;-71
2022/04/03 01:42:09;;;;;;;11.20;4.18;;;;;;;;;;5059321;28;20048;-72
2022/04/03 01:44:35;;;;;;;12.25;3.92;;;;;;;;;;5052246;28;20111;-72
2022/04/03 01:47:01;;;;;;;10.05;3.72;;;;;;;;;;5053402;28;20068;-72
2022/04/03 01:49:27;;;;;;;7.55;3.65;;;;;;;;;;5052247;28;20094;-71
2022/04/03 01:51:53;;;;;;;6.80;3.65;;;;;;;;;;5058923;28;20060;-71
2022/04/03 01:54:19;;;;;;;6.95;3.58;;;;;;;;;;5068759;28;20036;-71
2022/04/03 01:56:45;;;;;;;7.43;4.20;;;;;;;;;;5062888;28;20036;-71
2022/04/03 01:59:11;;;;;;;9.93;3.80;;;;;;;;;;5068272;28;20064;-72
2022/04/03 02:01:37;;;;;;;8.75;4.10;;;;;;;;;;5059765;28;20102;-71
2022/04/03 02:04:04;;;;;;;6.28;3.92;;;;;;;;;;5051684;28;20036;-71
2022/04/03 02:06:30;;;;;;;7.90;4.55;;;;;;;;;;5058233;28;20028;-72
2022/04/03 02:08:57;;;;;;;18.42;4.85;;;;;;;;;;5071177;28;20036;-72
2022/04/03 02:11:23;;;;;;;8.38;4.20;;;;;;;;;;5065723;28;20052;-72
2022/04/03 02:13:48;;;;;;;14.80;5.03;;;2.30;99.90;;;;;;5062084;28;20048;-72
2022/04/03 02:16:15;;;;;;;11.75;4.85;;;3.10;99.90;;;;;;5051917;28;20044;-72
2022/04/03 02:18:41;;;;;;;11.73;4.28;;;;;;;;;;5059362;28;20033;-72
2022/04/03 02:21:07;;;;;;;8.05;3.97;;;;;;;;;;5054662;28;20377;-72
2022/04/03 02:23:33;;;;;;;8.23;4.80;;;;;;;;;;5070661;28;20090;-72
2022/04/03 02:25:59;;;;;;;15.18;5.45;;;;;;;;;;5064097;28;20037;-71
2022/04/03 02:28:25;;;;;;;9.63;4.70;;;;;;;;;;5057770;28;20132;-72
2022/04/03 02:30:51;;;;;;;9.30;4.78;;;;;;;;;;5059751;28;20091;-72
2022/04/03 02:33:18;;;;;;;11.40;4.65;;;;;;;;;;5067471;28;20075;-72
2022/04/03 02:35:44;;;;;;;8.93;4.50;;;;;;;;;;5052762;28;20440;-72
2022/04/03 02:38:10;;;;;;;8.98;4.63;;;;;;;;;;5065649;28;20075;-72
2022/04/03 02:40:36;;;;;;;11.48;4.85;;;;;;;;;;5056815;28;20041;-72
2022/04/03 02:43:03;;;;;;;20.50;6.10;;;;;;;;;;5061065;28;20055;-72
2022/04/03 02:45:29;;;;;;;9.95;4.18;;;;;;;;;;5056530;28;20401;-71
2022/04/03 02:47:55;;;;;;;9.98;4.63;;;;;;;;;;5066857;28;20094;-71
2022/04/03 02:50:22;;;;;;;11.70;4.75;;;;;;;;;;5063901;28;20123;-73
2022/04/03 02:52:49;;;;;;;11.15;4.35;;;;;;;;;;5064710;28;20493;-71
2022/04/03 02:55:16;;;;;;;13.45;4.63;;;;;;;;;;5055147;28;20116;-72
2022/04/03 02:57:45;;;;;;;9.98;4.80;;;;;;;;;;5065355;28;20396;-72
2022/04/03 03:00:15;;;;;;;13.38;4.65;;;;;;;;;;5071903;28;20050;-71
2022/04/03 03:02:41;;;;;;;8.93;4.80;;;;;;;;;;5076792;28;20044;-71
2022/04/03 03:05:08;;;;;;;9.85;4.57;;;2.40;99.90;;;;;;5071986;28;20391;-72
2022/04/03 03:07:38;;;;;;;9.38;4.70;;;;;;;;;;5062761;28;20075;-72
2022/04/03 03:10:06;;;;;;;11.30;4.65;;;2.60;99.90;;;;;;5055946;28;20041;-71
2022/04/03 03:12:32;;;;;;;11.07;4.60;;;;;;;;;;5056953;28;20509;-71
2022/04/03 03:14:59;;;;;;;10.35;4.60;;;;;;;;;;5054817;28;20055;-71
2022/04/03 03:17:25;;;;;;;6.28;3.95;;;;;;;;;;5057323;28;20044;-72
2022/04/03 03:19:51;;;;;;;10.25;4.30;;;;;;;;;;5056019;28;20033;-72
2022/04/03 03:22:19;;;;;;;8.75;3.90;;;;;;;;;;5058058;28;20052;-72
2022/04/03 03:24:45;;;;;;;11.52;3.80;;;;;;;;;;5073958;28;20071;-71
2022/04/03 03:27:11;;;;;;;6.68;3.90;;;;;;;;;;5070925;28;20041;-71
2022/04/03 03:29:38;;;;;;;11.85;4.32;;;;;;;;;;5072021;28;20116;-72
2022/04/03 03:32:04;;;;;;;10.20;3.60;;;;;;;;;;5063528;28;20485;-72
2022/04/03 03:34:30;;;;;;;7.47;3.15;;;;;;;;;;5069188;28;20044;-72
2022/04/03 03:36:56;;;;;;;8.85;4.00;;;;;;;;;;5065936;28;20377;-72
2022/04/03 03:39:22;;;;;;;5.72;3.13;;;;;;;;;;5056264;28;20436;-72
2022/04/03 03:41:49;;;;;;;6.05;3.08;;;;;;;;;;5061684;28;20048;-72
2022/04/03 03:44:15;;;;;;;6.38;3.00;;;;;;;;;;5055640;28;20094;-71
2022/04/03 03:46:41;;;;;;;5.93;3.30;;;;;;;;;;5057583;28;20029;-71
2022/04/03 03:49:08;;;;;;;10.68;3.58;;;2.70;99.90;;;;;;5072122;28;20530;-71
2022/04/03 03:51:34;;;;;;;8.98;3.13;;;;;;;;;;5050610;28;20417;-72
2022/04/03 03:54:01;;;;;;;5.32;3.03;;;2.40;99.90;;;;;;5055078;28;20045;-71
2022/04/03 03:56:27;;;;;;;5.22;3.13;;;;;;;;;;5055253;28;20495;-72
2022/04/03 03:58:53;;;;;;;5.85;3.15;;;;;;;;;;5064372;28;20028;-71
2022/04/03 04:01:20;;;;;;;7.82;2.80;;;;;;;;;;5071852;28;20082;-71
2022/04/03 04:03:46;;;;;;;9.65;3.33;;;;;;;;;;5057887;28;20044;-72
2022/04/03 04:06:12;;;;;;;7.40;2.70;;;;;;;;;;5058359;28;20052;-71
2022/04/03 04:08:39;;;;;;;10.35;3.33;;;;;;;;;;5065310;28;20545;-71
2022/04/03 04:11:05;;;;;;;16.60;3.03;;;;;;;;;;5069755;28;20036;-71
2022/04/03 04:13:32;;;;;;;10.90;2.90;;;;;;;;;;5063069;28;20384;-72
2022/04/03 04:15:58;;;;;;;6.13;2.60;;;;;;;;;;5072730;28;20131;-71
2022/04/03 04:18:25;;;;;;;10.55;3.00;;;;;;;;;;5039501;28;20037;-71
2022/04/03 04:20:52;;;;;;;5.30;2.83;;;;;;;;;;5070551;28;20431;-71
2022/04/03 04:23:21;;;;;;;5.07;2.40;;;;;;;;;;5068501;28;20052;-71
2022/04/03 04:25:47;;;;;;;4.03;2.53;;;;;;;;;;5057194;28;20414;-71
2022/04/03 04:28:13;;;;;;;9.18;2.75;;;;;;;;;;5058053;28;20080;-71
2022/04/03 04:30:40;;;;;;;7.78;2.70;;;2.40;99.90;;;;;;5061255;28;20036;-71
2022/04/03 04:33:09;;;;;;;8.43;3.25;;;;;;;;;;5061973;28;20040;-72
2022/04/03 04:35:35;;;;;;;7.20;3.20;;;;;;;;;;5071692;28;20037;-71
2022/04/03 04:38:02;;;;;;;7.30;3.70;;;;;;;;;;5069167;28;20029;-70
2022/04/03 04:40:28;;;;;;;15.20;2.90;;;;;;;;;;5060048;28;20040;-72
2022/04/03 04:42:55;;;;;;;7.10;2.80;;;;;;;;;;5069087;28;20036;-71
2022/04/03 04:45:22;;;;;;;8.88;2.85;;;;;;;;;;5068656;28;20044;-71
2022/04/03 04:47:48;;;;;;;13.93;3.03;;;;;;;;;;5072335;28;20205;-71
2022/04/03 04:50:14;;;;;;;9.90;2.55;;;;;;;;;;5064764;28;20044;-71
2022/04/03 04:52:40;;;;;;;10.02;2.50;;;;;;;;;;5070292;28;20550;-71
2022/04/03 04:55:07;;;;;;;7.43;2.67;;;;;;;;;;5060500;28;20048;-72
2022/04/03 04:57:34;;;;;;;7.97;2.50;;;;;;;;;;5062734;28;20032;-71
2022/04/03 05:00:00;;;;;;;9.07;2.78;;;;;;;;;;5057719;28;20036;-71
2022/04/03 05:02:27;;;;;;;10.30;3.22;;;;;;;;;;5064117;28;20102;-71
2022/04/03 05:04:53;;;;;;;11.55;3.08;;;;;;;;;;5060432;28;20397;-72
2022/04/03 05:07:19;;;;;;;8.07;2.80;;;;;;;;;;5052833;28;20123;-72
2022/04/03 05:09:46;;;;;;;9.57;2.88;;;2.40;99.90;;;;;;5065984;28;20097;-71
2022/04/03 05:12:13;;;;;;;8.02;2.33;;;2.20;99.90;;;;;;5066380;28;20044;-71
2022/04/03 05:14:39;;;;;;;4.22;2.42;;;;;;;;;;5061016;28;20040;-71
2022/04/03 05:17:06;;;;;;;13.98;3.05;;;;;;;;;;5052420;28;20119;-71
2022/04/03 05:19:32;;;;;;;12.90;2.63;;;;;;;;;;5061769;28;20036;-72
2022/04/03 05:21:58;;;;;;;9.23;3.10;;;;;;;;;;5068865;28;20037;-72
2022/04/03 05:24:24;;;;;;;4.97;2.28;;;;;;;;;;5069247;28;20488;-71
2022/04/03 05:26:50;;;;;;;8.90;2.95;;;;;;;;;;5053953;28;20138;-71
2022/04/03 05:29:17;;;;;;;5.80;2.33;;;;;;;;;;5059242;28;20044;-71
2022/04/03 05:31:43;;;;;;;8.35;2.47;;;;;;;;;;5055889;28;20457;-71
2022/04/03 05:34:09;;;;;;;6.93;2.58;;;;;;;;;;5065585;28;20042;-71
2022/04/03 05:36:36;;;;;;;9.73;2.80;;;;;;;;;;5065624;28;20083;-71
2022/04/03 05:39:06;;;;;;;12.25;2.67;;;;;;;;;;5054853;28;20032;-71
2022/04/03 05:41:33;;;;;;;5.97;2.45;;;2.20;99.90;;;;;;5078898;28;20133;-72
2022/04/03 05:44:00;;;;;;;7.40;3.22;;;;;;;;;;5054524;28;20049;-72
2022/04/03 05:46:26;;;;;;;6.25;2.40;;;;;;;;;;5063380;28;20102;-72
2022/04/03 05:48:52;;;;;;;10.02;3.13;;;;;;;;;;5051885;28;20139;-72
2022/04/03 05:51:18;;;;;;;5.60;2.50;;;;;;;;;;5061713;28;20060;-71
2022/04/03 05:53:45;;;;;;;8.25;2.40;;;;;;;;;;5051904;28;20128;-71
2022/04/03 05:56:11;;;;;;;3.00;2.30;;;;;;;;;;5068933;28;20493;-71
2022/04/03 05:58:38;;;;;;;4.75;2.00;;;;;;;;;;5062011;28;20032;-71
2022/04/03 06:01:04;;;;;;;9.23;2.40;;;;;;;;;;5059176;28;20047;-72
2022/04/03 06:03:31;;;;;;;4.80;2.28;;;;;;;;;;5055975;28;20033;-72
2022/04/03 06:05:57;;;;;;;8.85;2.50;;;;;;;;;;5057471;28;20060;-72
2022/04/03 06:08:23;;;;;;;8.18;2.22;;;;;;;;;;5052819;28;20509;-72
2022/04/03 06:10:49;;;;;;;8.57;2.35;;;;;;;;;;5056680;28;20076;-72
2022/04/03 06:13:15;;;;;;;6.40;2.50;;;;;;;;;;5057983;28;20033;-72
2022/04/03 06:15:48;;;;;;;9.07;2.78;;;2.60;99.90;;;;;;5060150;28;20036;-72
2022/04/03 06:18:15;;;;;;;8.02;2.60;;;;;;;;;;5052525;28;20053;-72
2022/04/03 06:20:41;;;;;;;9.25;2.83;;;;;;;;;;5065181;28;20040;-72
2022/04/03 06:23:19;;;;;;;12.55;3.05;;;2.80;99.90;;;;;;5052667;28;20033;-72
2022/04/03 06:25:46;;;;;;;9.40;2.85;;;;;;;;;;5054990;28;20029;-72
2022/04/03 06:28:12;;;;;;;4.72;2.25;;;;;;;;;;5061242;28;20040;-72
2022/04/03 06:30:39;;;;;;;15.95;2.63;;;;;;;;;;5062623;28;20506;-72
2022/04/03 06:33:05;;;;;;;7.13;2.92;;;2.80;99.90;;;;;;5059589;28;20047;-72
2022/04/03 06:35:31;;;;;;;8.38;2.55;;;;;;;;;;5059232;28;20131;-72
2022/04/03 06:37:57;;;;;;;10.20;2.55;;;;;;;;;;5063948;28;20115;-72
2022/04/03 06:40:23;;;;;;;11.05;2.28;;;;;;;;;;5057164;28;20037;-72
2022/04/03 06:42:50;;;;;;;5.35;2.15;;;3.30;99.90;;;;;;5065221;28;20036;-72
2022/04/03 06:45:17;;;;;;;6.65;2.20;;;;;;;;;;5061410;28;20041;-71
2022/04/03 06:47:43;;;;;;;14.00;2.50;;;;;;;;;;5053381;28;20045;-72
2022/04/03 06:50:09;;;;;;;7.78;3.28;;;;;;;;;;5065455;28;20048;-72
2022/04/03 06:52:36;;;;;;;12.55;4.97;;;;;;;;;;5062752;28;20064;-71
2022/04/03 06:55:03;;;;;;;5.15;2.90;;;3.90;99.90;;;;;;5069163;28;20052;-72
2022/04/03 06:57:29;;;;;;;7.82;2.20;;;;;;;;;;5055821;28;21853;-71
2022/04/03 06:59:55;;;;;;;8.63;2.88;;;;;;;;;;5060999;28;20121;-72
2022/04/03 07:02:21;;;;;;;5.40;2.50;;;;;;;;;;5052654;28;20051;-72
2022/04/03 07:04:47;;;;;;;6.57;2.40;;;;;;;;;;5051356;28;20121;-71
2022/04/03 07:07:21;;;;;;;9.95;2.53;;;4.10;99.90;;;;;;5069240;28;20134;-72
2022/04/03 07:09:47;;;;;;;4.18;2.10;;;;;;;;;;5068360;28;20047;-70
2022/04/03 07:12:14;;;;;;;9.15;2.10;;;;;;;;;;5051012;28;20048;-71
2022/04/03 07:14:40;;;;;;;5.68;1.90;;;;;;;;;;5049818;28;20500;-71
2022/04/03 07:17:06;;;;;;;6.88;1.50;;;;;;;;;;5066095;28;20114;-72
2022/04/03 07:19:33;;;;;;;4.35;1.50;;;;;;;;;;5055786;28;20040;-72
2022/04/03 07:21:59;;;;;;;5.05;1.20;;;;;;;;;;5064110;28;20544;-73
2022/04/03 07:24:26;;;;;;;3.42;1.35;;;;;;;;;;5069290;28;20060;-71
2022/04/03 07:26:53;;;;;;;3.55;1.50;;;;;;;;;;5062855;28;20052;-72
2022/04/03 07:29:19;;;;;;;4.40;1.80;;;;;;;;;;5056209;28;20055;-72
2022/04/03 07:31:45;;;;;;;2.45;1.70;;;;;;;;;;5066267;28;20485;-72
2022/04/03 07:34:12;;;;;;;2.90;1.88;;;;;;;;;;5057989;28;20051;-72
2022/04/03 07:36:38;;;;;;;12.20;2.35;;;;;;;;;;5053005;28;20542;-72
2022/04/03 07:39:04;;;;;;;7.25;1.60;;;;;;;;;;5058686;28;20036;-71
2022/04/03 07:41:30;;;;;;;2.25;1.90;;;;;;;;;;5063820;28;20044;-71
2022/04/03 07:43:57;;;;;;;3.88;2.15;;;;;;;;;;5061798;28;20085;-72
2022/04/03 07:46:23;;;;;;;3.25;1.90;;;;;;;;;;5054419;28;20040;-72
2022/04/03 07:48:49;;;;;;;2.72;1.60;;;;;;;;;;5066561;28;20055;-72
2022/04/03 07:51:15;;;;;;;4.72;1.77;;;;;;;;;;5069758;28;20075;-71
2022/04/03 07:53:41;;;;;;;1.80;1.60;;;;;;;;;;5066189;28;20049;-71
2022/04/03 07:56:07;;;;;;;3.60;1.70;;;;;;;;;;5062861;28;20044;-71
2022/04/03 07:58:36;;;;;;;6.95;1.50;;;;;;;;;;5057966;28;20029;-71
2022/04/03 08:01:03;;;;;;;3.70;1.45;;;4.70;99.90;;;;;;5054304;28;20048;-71
2022/04/03 08:03:29;;;;;;;7.63;1.83;;;;;;;;;;5060017;28;20048;-71
2022/04/03 08:05:55;;;;;;;4.18;1.48;;;;;;;;;;5069171;28;20107;-71
2022/04/03 08:08:21;;;;;;;2.55;1.70;;;;;;;;;;5067427;28;20033;-72
2022/04/03 08:10:48;;;;;;;7.78;1.67;;;5.10;99.90;;;;;;5054911;28;20354;-72
2022/04/03 08:13:14;;;;;;;7.07;1.80;;;;;;;;;;5058724;28;20070;-71
2022/04/03 08:15:41;;;;;;;4.53;2.25;;;;;;;;;;5055062;28;20094;-71
2022/04/03 08:18:07;;;;;;;6.20;2.20;;;;;;;;;;5061392;28;20554;-71
2022/04/03 08:20:33;;;;;;;8.82;2.20;;;;;;;;;;5053524;28;20041;-71
2022/04/03 08:23:03;;;;;;;7.15;2.10;;;;;;;;;;5054480;28;20033;-71
2022/04/03 08:25:30;;;;;;;5.72;2.03;;;5.10;99.90;;;;;;5068024;28;20134;-71
2022/04/03 08:27:56;;;;;;;4.85;1.90;;;;;;;;;;5071199;28;20075;-70
2022/04/03 08:30:23;;;;;;;9.55;1.98;;;;;;;;;;5053339;28;20040;-71
2022/04/03 08:32:49;;;;;;;6.43;2.20;;;;;;;;;;5057873;28;20086;-70
2022/04/03 08:35:16;;;;;;;5.55;2.20;;;;;;;;;;5066806;28;20044;-71
2022/04/03 08:37:43;;;;;;;3.60;1.80;;;;;;;;;;5057173;28;20547;-71
2022/04/03 08:40:09;;;;;;;5.72;2.10;;;;;;;;;;5055414;28;20496;-71
2022/04/03 08:42:36;;;;;;;4.10;2.13;;;;;;;;;;5054360;28;20047;-71
2022/04/03 08:45:04;;;;;;;8.98;1.73;;;5.50;99.90;;;;;;5067728;28;20072;-71
2022/04/03 08:47:31;;;;;;;5.07;1.80;;;5.60;99.90;;;;;;5053729;28;20087;-72
2022/04/03 08:50:00;;;;;;;4.75;1.67;;;5.70;99.90;;;;;;5066887;28;20119;-72
2022/04/03 08:52:32;;;;;;;4.55;1.70;;;;;;;;;;5083146;28;20053;-72
2022/04/03 08:54:59;;;;;;;3.50;1.50;;;5.80;99.90;;;;;;5057966;28;20075;-71
2022/04/03 08:57:25;;;;;;;7.90;1.80;;;;;;;;;;5052733;28;20037;-71
2022/04/03 08:59:52;;;;;;;4.35;1.60;;;5.70;99.90;;;;;;5065256;28;20040;-71
2022/04/03 09:02:18;;;;;;;4.32;1.83;;;;;;;;;;5067240;28;20425;-71
2022/04/03 09:04:44;;;;;;;7.43;1.88;;;;;;;;;;5060368;28;20412;-71
2022/04/03 09:07:18;;;;;;;3.63;1.63;;;6.20;99.90;;;;;;5061339;28;20537;-71
2022/04/03 09:09:44;;;;;;;7.93;1.83;;;;;;;;;;5057140;28;20044;-71
2022/04/03 09:12:17;;;;;;;6.43;1.90;;;;;;;;;;5052434;28;20378;-71
2022/04/03 09:14:52;;;;;;;3.67;1.67;;;6.20;99.90;;;;;;5061620;28;20393;-72
2022/04/03 09:17:34;;;;;;;6.43;1.52;;;;;;;;;;5063210;28;20036;-71
2022/04/03 09:20:05;;;;;;;2.25;1.58;;;6.60;99.90;;;;;;5062590;28;20043;-72
2022/04/03 09:22:32;;;;;;;4.82;1.80;;;;;;;;;;5065584;28;20036;-71
2022/04/03 09:24:59;;;;;;;8.55;2.30;;;;;;;;;;5060296;28;20390;-71
2022/04/03 09:27:25;;;;;;;7.80;2.47;;;;;;;;;;5056981;28;20492;-71
2022/04/03 09:30:02;;;;;;;5.30;2.40;;;;;;;;;;5062249;28;20052;-71
2022/04/03 09:32:28;;;;;;;5.90;2.08;;;;;;;;;;5067739;28;20046;-71
2022/04/03 09:34:57;;;;;;;12.43;2.97;;;;;;;;;;5062500;28;20429;-72
2022/04/03 09:37:24;;;;;;;8.80;2.15;;;;;;;;;;5053146;28;20045;-71
2022/04/03 09:39:50;;;;;;;4.65;1.80;;;;;;;;;;5059307;28;20504;-71
2022/04/03 09:42:17;;;;;;;7.65;3.03;;;;;;;;;;5058226;28;20045;-71
2022/04/03 09:44:44;;;;;;;4.43;2.25;;;;;;;;;;5058172;28;20127;-71
2022/04/03 09:47:10;;;;;;;5.28;1.95;;;;;;;;;;5060636;28;20051;-72
2022/04/03 09:49:36;;;;;;;4.28;1.77;;;;;;;;;;5051288;28;20041;-71
2022/04/03 09:52:03;;;;;;;6.30;1.67;;;;;;;;;;5067376;28;20045;-72
2022/04/03 09:54:29;;;;;;;2.33;1.60;;;;;;;;;;5061245;28;20512;-71
2022/04/03 09:56:56;;;;;;;2.20;1.40;;;;;;;;;;5055318;28;20093;-71
2022/04/03 09:59:22;;;;;;;4.75;1.60;;;7.10;99.90;;;;;;5072055;28;20098;-71
2022/04/03 10:01:57;;;;;;;4.57;1.70;;;;;;;;;;5069742;28;20044;-71
2022/04/03 10:04:23;;;;;;;4.82;1.80;;;6.90;99.90;;;;;;5063281;28;20049;-74
2022/04/03 10:06:51;;;;;;;4.25;1.80;;;;;;;;;;5060244;28;20095;-76
2022/04/03 10:09:18;;;;;;;4.57;1.40;;;;;;;;;;5069791;28;20051;-76
2022/04/03 10:11:44;;;;;;;1.83;1.52;;;;;;;;;;5067801;28;20060;-72
2022/04/03 10:14:13;;;;;;;2.58;1.42;;;;;;;;;;5070928;28;20041;-72
2022/04/03 10:16:39;;;;;;;5.97;1.60;;;;;;;;;;5060325;28;20090;-71
2022/04/03 10:19:05;;;;;;;5.32;1.60;;;;;;;;;;5051812;28;20037;-73
2022/04/03 10:21:40;;;;;;;10.15;1.92;;;;;;;;;;5054449;28;20088;-72
2022/04/03 10:24:09;;;;;;;4.95;1.70;;;;;;;;;;5069828;28;20127;-72
2022/04/03 10:26:36;;;;;;;3.00;1.50;;;;;;;;;;5067784;28;20173;-71
2022/04/03 10:29:07;;;;;;;3.72;1.58;;;7.30;99.90;;;;;;5071637;28;20049;-72
2022/04/03 10:31:33;;;;;;;1.70;1.30;;;;;;;;;;5072954;28;20145;-71
2022/04/03 10:33:59;;;;;;;3.65;1.50;;;;;;;;;;5071606;28;20487;-71
2022/04/03 10:36:26;;;;;;;3.63;1.30;;;;;;;;;;5071938;28;20040;-72
2022/04/03 10:39:02;;;;;;;5.20;1.73;;;7.30;99.00;;;;;;5071628;28;20105;-72
2022/04/03 10:41:34;;;;;;;6.47;1.52;;;;;;;;;;5071487;28;20040;-72
2022/04/03 10:44:12;;;;;;;6.68;1.70;;;;;;;;;;5071519;28;20051;-72
2022/04/03 10:47:10;;;;;;;5.10;1.48;;;7.80;99.10;;;;;;5071702;28;20127;-72
2022/04/03 10:49:47;;;;;;;4.68;1.40;;;;;;;;;;5059413;28;20090;-72
2022/04/03 10:52:24;;;;;;;4.25;1.60;;;7.30;97.80;;;;;;5071257;28;20143;-72
2022/04/03 10:54:53;;;;;;;2.38;1.30;;;7.40;98.40;;;;;;5071395;28;20051;-72
2022/04/03 10:57:42;;;;;;;4.88;2.50;;;7.60;98.00;;;;;;5071429;28;20045;-71
2022/04/03 11:00:14;;;;;;;3.83;1.50;;;7.70;97.80;;;;;;5072113;28;20044;-72
2022/04/03 11:02:50;;;;;;;1.47;1.10;;;8.10;97.40;;;;;;5075267;28;20044;-71
2022/04/03 11:05:22;;;;;;;1.52;1.20;;;;;;;;;;5075037;28;20361;-71
2022/04/03 11:08:00;;;;;;;11.32;2.30;;;;;;;;;;5075026;28;20052;-72
2022/04/03 11:10:42;;;;;;;1.50;1.02;;;;;;;;;;5075009;28;20481;-72
2022/04/03 11:13:10;;;;;;;3.65;1.40;;;8.40;95.40;;;;;;5075011;28;20094;-72
2022/04/03 11:15:44;;;;;;;3.60;1.15;;;;;;;;;;5075207;28;20048;-72
2022/04/03 11:18:25;;;;;;;2.80;1.40;;;8.00;97.10;;;;;;5075171;28;20123;-71
2022/04/03 11:21:10;;;;;;;2.85;1.30;;;8.10;97.10;;;;;;5074928;28;20040;-72
2022/04/03 11:23:40;;;;;;;3.05;1.35;;;8.20;95.90;;;;;;5074927;28;20559;-72
2022/04/03 11:26:06;;;;;;;7.25;1.40;;;;;;;;;;5074771;28;20404;-71
2022/04/03 11:28:36;;;;;;;6.82;1.63;;;8.30;96.70;;;;;;5074900;28;20392;-72
2022/04/03 11:31:04;;;;;;;7.97;1.50;;;8.40;96.80;;;;;;5074828;28;20111;-72
2022/04/03 11:33:30;;;;;;;1.48;1.30;;;;;;;;;;5074575;28;20045;-72
2022/04/03 11:36:04;;;;;;;6.78;1.42;;;8.50;96.10;;;;;;5075965;28;20169;-72
2022/04/03 11:38:38;;;;;;;5.60;1.40;;;9.20;99.50;;;;;;5075777;28;20040;-72
2022/04/03 11:41:12;;;;;;;4.30;1.80;;;8.90;96.10;;;;;;5074413;28;20547;-71
2022/04/03 11:43:40;;;;;;;2.38;1.30;;;;;;;;;;5074648;28;20033;-72
2022/04/03 11:46:07;;;;;;;2.65;1.30;;;;;;;;;;5074339;28;20059;-72
2022/04/03 11:48:45;;;;;;;1.30;1.17;;;;;;;;;;5074454;28;20056;-72
2022/04/03 11:51:17;;;;;;;13.02;1.83;;;8.50;95.60;;;;;;5074337;28;20055;-72
2022/04/03 11:53:45;;;;;;;8.32;1.70;;;;;;;;;;5074140;28;20125;-72
2022/04/03 11:56:11;;;;;;;4.22;1.45;;;;;;;;;;5075419;28;20052;-72
2022/04/03 11:58:39;;;;;;;5.55;1.83;;;8.90;95.40;;;;;;5057192;28;20046;-72
2022/04/03 12:01:05;;;;;;;3.58;1.30;;;;;;;;;;5075246;28;20041;-72
2022/04/03 12:03:33;;;;;;;4.32;1.45;;;;;;;;;;5073820;28;20123;-72
2022/04/03 12:06:17;;;;;;;6.57;1.67;;;8.20;95.40;;;;;;5073754;28;20036;-72
2022/04/03 12:08:45;;;;;;;5.65;1.60;;;;;;;;;;5075180;28;20043;-72
2022/04/03 12:11:29;;;;;;;3.55;1.40;;;8.40;96.00;;;;;;5075027;28;20393;-72
2022/04/03 12:13:57;;;;;;;7.95;2.20;;;8.50;95.30;;;;;;5074611;28;20037;-72
2022/04/03 12:16:24;;;;;;;5.30;1.50;;;;;;;;;;5073631;28;20041;-72
2022/04/03 12:18:58;;;;;;;2.95;1.60;;;8.70;94.80;;;;;;5073633;28;20040;-72
2022/04/03 12:21:45;;;;;;;5.47;1.80;;;8.80;94.90;;;;;;5056936;28;20048;-72
2022/04/03 12:24:13;;;;;;;3.10;1.27;;;;;;;;;;5074798;28;20075;-72
2022/04/03 12:26:59;;;;;;;4.70;1.50;;;8.70;94.90;;;;;;5073817;28;20048;-72
2022/04/03 12:29:30;;;;;;;1.70;1.40;;;8.80;94.70;;;;;;5057022;28;20040;-72
2022/04/03 12:32:01;;;;;;;8.00;2.08;;;;;;;;;;5073343;28;20045;-72
2022/04/03 12:34:28;;;;;;;4.47;1.67;;;9.10;94.60;;;;;;5073487;28;20043;-72
2022/04/03 12:36:55;;;;;;;4.95;1.50;;;;;;;;;;5074821;28;20469;-72
2022/04/03 12:39:33;;;;;;;4.72;1.60;;;;;;;;;;5073475;28;20110;-72
2022/04/03 12:42:19;;;;;;;2.50;1.40;;;;;;;;;;5073500;28;20113;-72
2022/04/03 12:44:46;;;;;;;4.90;1.48;;;;;;;;;;5073083;28;20048;-72
2022/04/03 12:47:33;;;;;;;2.30;1.45;;;9.10;93.90;;;;;;5073219;28;20079;-72
2022/04/03 12:50:11;;;;;;;5.03;1.15;;;9.20;92.70;;;;;;5072451;28;20105;-72
2022/04/03 12:52:49;;;;;;;3.38;1.23;;;;;;;;;;5072748;28;20049;-72
2022/04/03 12:55:25;;;;;;;2.33;1.33;;;;;;;;;;5073396;28;20174;-72
2022/04/03 13:00:46;;;;;;;4.60;1.50;;;;;;;;;;5073167;28;20087;-72
2022/04/03 13:03:24;;;;;;;7.60;2.08;;;;;;;;;;5072829;28;20040;-72
2022/04/03 13:05:50;;;;;;;32.47;2.10;;;;;;;;;;5073239;28;20055;-72
2022/04/03 13:08:16;;;;;;;18.00;2.70;;;;;;;;;;5072645;28;20074;-72
2022/04/03 13:10:56;;;;;;;4.00;1.80;;;8.90;93.50;;;;;;5073837;28;20040;-72
2022/04/03 13:13:24;;;;;;;3.67;1.55;;;;;;;;;;5073895;28;20007;-72
2022/04/03 13:15:51;;;;;;;3.25;1.30;;;;;;;;;;5072455;28;20050;-72
2022/04/03 13:18:17;;;;;;;3.70;1.50;;;;;;;;;;5072383;28;20098;-72
2022/04/03 13:20:56;;;;;;;4.35;1.70;;;8.50;93.60;;;;;;5072571;28;20040;-72
2022/04/03 13:23:24;;;;;;;3.42;1.48;;;;;;;;;;5072306;28;20571;-72
2022/04/03 13:25:50;;;;;;;4.30;1.80;;;;;;;;;;5072270;28;20044;-72
2022/04/03 13:28:18;;;;;;;10.25;1.75;;;8.70;94.40;;;;;;5072650;28;20032;-72
2022/04/03 13:30:44;;;;;;;8.82;1.83;;;;;;;;;;5072689;28;20032;-72
2022/04/03 13:33:10;;;;;;;7.05;2.80;;;8.90;97.70;;;;;;5073678;28;20040;-72
2022/04/03 13:35:38;;;;;;;2.97;1.45;;;8.50;93.40;;;;;;5072231;28;20047;-72
2022/04/03 13:38:08;;;;;;;7.15;1.83;;;8.70;93.50;;;;;;5072473;28;20468;-72
2022/04/03 13:40:35;;;;;;;1.83;1.50;;;;;;;;;;5073571;28;20033;-73
2022/04/03 13:43:02;;;;;;;4.35;1.40;;;8.80;93.10;;;;;;5073374;28;20041;-73
2022/04/03 13:48:13;;;;;;;4.00;1.75;;;;;;;;;;5071947;28;20040;-72
2022/04/03 13:50:39;;;;;;;6.18;2.00;;;;;;;;;;5055296;28;20041;-71
2022/04/03 13:53:06;;;;;;;4.80;1.88;;;9.00;99.90;;;;;;5071683;28;20505;-71
2022/04/03 13:55:32;;;;;;;3.88;2.15;;;;;;;;;;5055731;28;20070;-71
2022/04/03 13:57:59;;;;;;;3.72;1.85;;;;;;;;;;5072024;28;20200;-72
2022/04/03 14:00:25;;;;;;;5.32;1.70;;;;;;;;;;5072142;28;20384;-71
2022/04/03 14:02:52;;;;;;;7.78;2.20;;;;;;;;;;5072111;28;20059;-72
2022/04/03 14:05:18;;;;;;;4.55;2.13;;;;;;;;;;5071864;28;20511;-72
2022/04/03 14:07:44;;;;;;;6.10;2.00;;;8.10;99.90;;;;;;5071834;28;20090;-72
2022/04/03 14:10:10;;;;;;;5.40;2.00;;;;;;;;;;5072206;28;20044;-72
2022/04/03 14:12:37;;;;;;;6.38;2.00;;;;;;;;;;5072099;28;20048;-72
2022/04/03 14:15:04;;;;;;;5.72;2.00;;;7.00;98.20;;;;;;5071725;28;20079;-72
2022/04/03 14:17:30;;;;;;;4.80;1.73;;;;;;;;;;5073029;28;20508;-72
2022/04/03 14:19:56;;;;;;;3.90;1.73;;;;;;;;;;5071967;28;20052;-72
2022/04/03 14:22:23;;;;;;;3.03;1.88;;;;;;;;;;5071808;28;20155;-72
2022/04/03 14:24:49;;;;;;;3.35;1.80;;;;;;;;;;5071798;28;20523;-72
2022/04/03 14:27:15;;;;;;;2.50;1.52;;;;;;;;;;5071890;28;20488;-72